sensor_id;sensor_type;location;lat;lon;timestamp;pressure;altitude;pressure_sealevel;temperature;humidity
24234;BME280;12365;43.554;1.388;2024-02-26T00:00:11;98208.84;;;11.46;67.46
24234;BME280;12365;43.554;1.388;2024-02-26T00:02:37;98214.06;;;11.46;67.41
24234;BME280;12365;43.554;1.388;2024-02-26T00:05:06;98207.97;;;11.45;67.54
24234;BME280;12365;43.554;1.388;2024-02-26T00:07:32;98207.13;;;11.46;67.57
24234;BME280;12365;43.554;1.388;2024-02-26T00:09:57;98205.47;;;11.50;67.35
24234;BME280;12365;43.554;1.388;2024-02-26T00:12:22;98200.28;;;11.53;67.49
24234;BME280;12365;43.554;1.388;2024-02-26T00:14:48;98198.53;;;11.52;67.56
24234;BME280;12365;43.554;1.388;2024-02-26T00:17:15;98192.41;;;11.50;67.53
24234;BME280;12365;43.554;1.388;2024-02-26T00:19:40;98176.59;;;11.44;67.38
24234;BME280;12365;43.554;1.388;2024-02-26T00:22:06;98173.97;;;11.42;67.61
24234;BME280;12365;43.554;1.388;2024-02-26T00:24:31;98175.69;;;11.40;67.62
24234;BME280;12365;43.554;1.388;2024-02-26T00:26:57;98174.72;;;11.37;67.42
24234;BME280;12365;43.554;1.388;2024-02-26T00:29:22;98173.84;;;11.36;67.46
24234;BME280;12365;43.554;1.388;2024-02-26T00:31:48;98158.19;;;11.35;67.53
24234;BME280;12365;43.554;1.388;2024-02-26T00:34:14;98163.34;;;11.33;67.67
24234;BME280;12365;43.554;1.388;2024-02-26T00:36:39;98152.00;;;11.30;67.48
24234;BME280;12365;43.554;1.388;2024-02-26T00:39:05;98150.25;;;11.32;67.78
24234;BME280;12365;43.554;1.388;2024-02-26T00:41:30;98138.13;;;11.34;67.50
24234;BME280;12365;43.554;1.388;2024-02-26T00:43:55;98131.22;;;11.36;67.50
24234;BME280;12365;43.554;1.388;2024-02-26T00:46:21;98124.28;;;11.38;67.46
24234;BME280;12365;43.554;1.388;2024-02-26T00:48:46;98133.03;;;11.40;67.61
24234;BME280;12365;43.554;1.388;2024-02-26T00:51:12;98136.59;;;11.45;67.41
24234;BME280;12365;43.554;1.388;2024-02-26T00:53:37;98138.41;;;11.49;67.55
24234;BME280;12365;43.554;1.388;2024-02-26T00:56:02;98142.78;;;11.52;67.50
24234;BME280;12365;43.554;1.388;2024-02-26T00:58:28;98131.47;;;11.51;67.64
24234;BME280;12365;43.554;1.388;2024-02-26T01:00:53;98131.47;;;11.51;67.54
24234;BME280;12365;43.554;1.388;2024-02-26T01:03:19;98143.69;;;11.54;67.61
24234;BME280;12365;43.554;1.388;2024-02-26T01:05:44;98137.59;;;11.53;67.64
24234;BME280;12365;43.554;1.388;2024-02-26T01:08:10;98140.25;;;11.55;67.58
24234;BME280;12365;43.554;1.388;2024-02-26T01:10:35;98141.13;;;11.55;67.69
24234;BME280;12365;43.554;1.388;2024-02-26T01:13:01;98139.34;;;11.53;67.57
24234;BME280;12365;43.554;1.388;2024-02-26T01:15:27;98138.41;;;11.49;67.77
24234;BME280;12365;43.554;1.388;2024-02-26T01:17:53;98134.81;;;11.44;67.75
24234;BME280;12365;43.554;1.388;2024-02-26T01:20:18;98131.25;;;11.39;67.70
24234;BME280;12365;43.554;1.388;2024-02-26T01:22:44;98127.72;;;11.35;67.79
24234;BME280;12365;43.554;1.388;2024-02-26T01:25:10;98126.78;;;11.32;67.65
24234;BME280;12365;43.554;1.388;2024-02-26T01:27:36;98124.97;;;11.27;67.91
24234;BME280;12365;43.554;1.388;2024-02-26T01:30:05;98118.84;;;11.25;67.85
24234;BME280;12365;43.554;1.388;2024-02-26T01:32:31;98123.16;;;11.22;67.90
24234;BME280;12365;43.554;1.388;2024-02-26T01:34:57;98128.31;;;11.20;67.81
24234;BME280;12365;43.554;1.388;2024-02-26T01:37:22;98120.44;;;11.17;67.74
24234;BME280;12365;43.554;1.388;2024-02-26T01:39:48;98113.41;;;11.13;67.86
24234;BME280;12365;43.554;1.388;2024-02-26T01:42:13;98118.56;;;11.10;67.72
24234;BME280;12365;43.554;1.388;2024-02-26T01:44:38;98123.75;;;11.07;68.00
24234;BME280;12365;43.554;1.388;2024-02-26T01:47:05;98124.50;;;11.01;67.71
24234;BME280;12365;43.554;1.388;2024-02-26T01:49:34;98126.97;;;10.95;67.88
24234;BME280;12365;43.554;1.388;2024-02-26T01:52:02;98128.69;;;10.93;67.65
24234;BME280;12365;43.554;1.388;2024-02-26T01:54:29;98119.88;;;10.87;67.66
24234;BME280;12365;43.554;1.388;2024-02-26T01:56:55;98121.50;;;10.81;67.74
24234;BME280;12365;43.554;1.388;2024-02-26T01:59:20;98117.94;;;10.76;67.94
24234;BME280;12365;43.554;1.388;2024-02-26T02:01:48;98120.44;;;10.73;67.94
24234;BME280;12365;43.554;1.388;2024-02-26T02:04:18;98124.69;;;10.68;67.96
24234;BME280;12365;43.554;1.388;2024-02-26T02:06:45;98108.97;;;10.63;67.93
24234;BME280;12365;43.554;1.388;2024-02-26T02:09:11;98120.22;;;10.61;67.94
24234;BME280;12365;43.554;1.388;2024-02-26T02:11:37;98113.22;;;10.58;68.02
24234;BME280;12365;43.554;1.388;2024-02-26T02:14:03;98110.56;;;10.57;67.80
24234;BME280;12365;43.554;1.388;2024-02-26T02:16:28;98111.34;;;10.53;67.74
24234;BME280;12365;43.554;1.388;2024-02-26T02:18:54;98111.28;;;10.48;67.95
24234;BME280;12365;43.554;1.388;2024-02-26T02:21:19;98120.75;;;10.45;67.66
24234;BME280;12365;43.554;1.388;2024-02-26T02:23:44;98109.41;;;10.43;67.89
24234;BME280;12365;43.554;1.388;2024-02-26T02:26:12;98109.28;;;10.38;67.53
24234;BME280;12365;43.554;1.388;2024-02-26T02:28:39;98106.69;;;10.36;67.83
24234;BME280;12365;43.554;1.388;2024-02-26T02:31:05;98095.28;;;10.33;68.06
24234;BME280;12365;43.554;1.388;2024-02-26T02:33:30;98083.97;;;10.31;68.01
24234;BME280;12365;43.554;1.388;2024-02-26T02:35:56;98085.69;;;10.30;68.02
24234;BME280;12365;43.554;1.388;2024-02-26T02:38:23;98082.19;;;10.28;67.64
24234;BME280;12365;43.554;1.388;2024-02-26T02:40:49;98085.59;;;10.27;67.98
24234;BME280;12365;43.554;1.388;2024-02-26T02:43:14;98082.91;;;10.24;67.94
24234;BME280;12365;43.554;1.388;2024-02-26T02:45:39;98077.59;;;10.19;67.58
24234;BME280;12365;43.554;1.388;2024-02-26T02:48:05;98084.50;;;10.17;68.03
24234;BME280;12365;43.554;1.388;2024-02-26T02:50:30;98078.34;;;10.14;67.83
24234;BME280;12365;43.554;1.388;2024-02-26T02:52:56;98080.09;;;10.13;67.90
24234;BME280;12365;43.554;1.388;2024-02-26T02:55:21;98086.94;;;10.10;67.68
24234;BME280;12365;43.554;1.388;2024-02-26T02:57:46;98086.06;;;10.08;67.60
24234;BME280;12365;43.554;1.388;2024-02-26T03:00:12;98078.97;;;10.02;67.66
24234;BME280;12365;43.554;1.388;2024-02-26T03:02:37;98080.75;;;10.05;67.67
24234;BME280;12365;43.554;1.388;2024-02-26T03:05:06;98078.16;;;10.05;67.83
24234;BME280;12365;43.554;1.388;2024-02-26T03:07:31;98086.88;;;10.07;67.70
24234;BME280;12365;43.554;1.388;2024-02-26T03:09:57;98093.88;;;10.09;68.02
24234;BME280;12365;43.554;1.388;2024-02-26T03:12:22;98096.53;;;10.11;67.99
24234;BME280;12365;43.554;1.388;2024-02-26T03:14:48;98087.00;;;10.11;67.97
24234;BME280;12365;43.554;1.388;2024-02-26T03:17:13;98086.94;;;10.10;67.75
24234;BME280;12365;43.554;1.388;2024-02-26T03:19:39;98089.53;;;10.08;67.69
24234;BME280;12365;43.554;1.388;2024-02-26T03:22:04;98091.28;;;10.09;67.78
24234;BME280;12365;43.554;1.388;2024-02-26T03:24:29;98093.13;;;10.13;67.98
24234;BME280;12365;43.554;1.388;2024-02-26T03:26:55;98087.03;;;10.14;67.84
24234;BME280;12365;43.554;1.388;2024-02-26T03:29:21;98092.31;;;10.16;68.04
24234;BME280;12365;43.554;1.388;2024-02-26T03:31:46;98106.25;;;10.18;67.87
24234;BME280;12365;43.554;1.388;2024-02-26T03:34:12;98103.72;;;10.23;67.64
24234;BME280;12365;43.554;1.388;2024-02-26T03:36:39;98107.34;;;10.28;67.91
24234;BME280;12365;43.554;1.388;2024-02-26T03:39:04;98103.16;;;10.34;67.83
24234;BME280;12365;43.554;1.388;2024-02-26T03:41:33;98102.44;;;10.43;67.74
24234;BME280;12365;43.554;1.388;2024-02-26T03:43:58;98093.91;;;10.50;67.91
24234;BME280;12365;43.554;1.388;2024-02-26T03:46:24;98080.19;;;10.59;67.87
24234;BME280;12365;43.554;1.388;2024-02-26T03:48:49;98083.97;;;10.75;67.81
24234;BME280;12365;43.554;1.388;2024-02-26T03:51:15;98084.31;;;10.92;67.97
24234;BME280;12365;43.554;1.388;2024-02-26T03:53:40;98082.75;;;11.03;67.84
24234;BME280;12365;43.554;1.388;2024-02-26T03:56:06;98076.00;;;11.13;68.09
24234;BME280;12365;43.554;1.388;2024-02-26T03:58:32;98071.91;;;11.27;67.92
24234;BME280;12365;43.554;1.388;2024-02-26T04:00:59;98084.25;;;11.37;67.64
24234;BME280;12365;43.554;1.388;2024-02-26T04:03:24;98099.22;;;11.47;67.83
24234;BME280;12365;43.554;1.388;2024-02-26T04:05:50;98106.47;;;11.65;67.68
24234;BME280;12365;43.554;1.388;2024-02-26T04:08:16;98107.56;;;11.80;67.38
24234;BME280;12365;43.554;1.388;2024-02-26T04:10:41;98099.78;;;11.84;67.20
24234;BME280;12365;43.554;1.388;2024-02-26T04:13:07;98092.16;;;11.95;67.00
24234;BME280;12365;43.554;1.388;2024-02-26T04:15:33;98090.50;;;12.00;66.82
24234;BME280;12365;43.554;1.388;2024-02-26T04:17:58;98092.31;;;12.06;66.68
24234;BME280;12365;43.554;1.388;2024-02-26T04:20:23;98101.19;;;12.16;66.46
24234;BME280;12365;43.554;1.388;2024-02-26T04:22:49;98094.22;;;12.18;66.12
24234;BME280;12365;43.554;1.388;2024-02-26T04:25:14;98097.75;;;12.21;66.05
24234;BME280;12365;43.554;1.388;2024-02-26T04:27:40;98094.22;;;12.18;66.03
24234;BME280;12365;43.554;1.388;2024-02-26T04:30:06;98082.00;;;12.17;65.93
24234;BME280;12365;43.554;1.388;2024-02-26T04:32:32;98075.06;;;12.20;65.89
24234;BME280;12365;43.554;1.388;2024-02-26T04:34:58;98081.22;;;12.21;65.58
24234;BME280;12365;43.554;1.388;2024-02-26T04:37:23;98068.97;;;12.18;65.45
24234;BME280;12365;43.554;1.388;2024-02-26T04:39:48;98082.03;;;12.20;65.50
24234;BME280;12365;43.554;1.388;2024-02-26T04:42:14;98100.28;;;12.15;65.44
24234;BME280;12365;43.554;1.388;2024-02-26T04:44:39;98097.66;;;12.13;65.27
24234;BME280;12365;43.554;1.388;2024-02-26T04:47:05;98095.00;;;12.12;65.15
24234;BME280;12365;43.554;1.388;2024-02-26T04:49:30;98100.22;;;12.12;65.29
24234;BME280;12365;43.554;1.388;2024-02-26T04:51:55;98104.63;;;12.14;65.22
24234;BME280;12365;43.554;1.388;2024-02-26T04:54:21;98098.56;;;12.17;65.08
24234;BME280;12365;43.554;1.388;2024-02-26T04:56:47;98094.16;;;12.14;65.01
24234;BME280;12365;43.554;1.388;2024-02-26T04:59:13;98090.75;;;12.19;65.11
24234;BME280;12365;43.554;1.388;2024-02-26T05:01:39;98085.53;;;12.19;64.70
24234;BME280;12365;43.554;1.388;2024-02-26T05:04:04;98080.34;;;12.22;64.77
24234;BME280;12365;43.554;1.388;2024-02-26T05:06:29;98091.75;;;12.28;64.32
24234;BME280;12365;43.554;1.388;2024-02-26T05:08:55;98097.88;;;12.30;64.30
24234;BME280;12365;43.554;1.388;2024-02-26T05:11:20;98102.25;;;12.33;64.13
24234;BME280;12365;43.554;1.388;2024-02-26T05:13:47;98104.88;;;12.33;64.09
24234;BME280;12365;43.554;1.388;2024-02-26T05:16:13;98092.63;;;12.29;64.14
24234;BME280;12365;43.554;1.388;2024-02-26T05:18:38;98107.41;;;12.27;64.13
24234;BME280;12365;43.554;1.388;2024-02-26T05:21:04;98109.06;;;12.20;64.15
24234;BME280;12365;43.554;1.388;2024-02-26T05:23:29;98109.88;;;12.18;64.03
24234;BME280;12365;43.554;1.388;2024-02-26T05:25:55;98101.19;;;12.17;64.13
24234;BME280;12365;43.554;1.388;2024-02-26T05:28:20;98107.28;;;12.18;63.98
24234;BME280;12365;43.554;1.388;2024-02-26T05:30:46;98112.47;;;12.13;64.00
24234;BME280;12365;43.554;1.388;2024-02-26T05:33:11;98104.44;;;12.02;64.20
24234;BME280;12365;43.554;1.388;2024-02-26T05:35:37;98114.97;;;12.05;63.94
24234;BME280;12365;43.554;1.388;2024-02-26T05:38:03;98101.00;;;12.03;64.00
24234;BME280;12365;43.554;1.388;2024-02-26T05:40:28;98102.66;;;12.00;64.14
24234;BME280;12365;43.554;1.388;2024-02-26T05:42:55;98100.00;;;11.95;64.12
24234;BME280;12365;43.554;1.388;2024-02-26T05:45:20;98105.16;;;11.92;63.91
24234;BME280;12365;43.554;1.388;2024-02-26T05:47:47;98104.22;;;11.87;64.08
24234;BME280;12365;43.554;1.388;2024-02-26T05:50:12;98116.41;;;11.86;64.21
24234;BME280;12365;43.554;1.388;2024-02-26T05:52:38;98117.28;;;11.87;63.98
24234;BME280;12365;43.554;1.388;2024-02-26T05:55:04;98113.69;;;11.82;64.19
24234;BME280;12365;43.554;1.388;2024-02-26T05:57:31;98125.84;;;11.78;64.07
24234;BME280;12365;43.554;1.388;2024-02-26T05:59:56;98106.63;;;11.76;63.93
24234;BME280;12365;43.554;1.388;2024-02-26T06:02:21;98117.97;;;11.77;64.13
24234;BME280;12365;43.554;1.388;2024-02-26T06:04:47;98104.91;;;11.75;63.96
24234;BME280;12365;43.554;1.388;2024-02-26T06:07:12;98109.34;;;11.81;63.84
24234;BME280;12365;43.554;1.388;2024-02-26T06:09:38;98108.50;;;11.85;63.76
24234;BME280;12365;43.554;1.388;2024-02-26T06:12:05;98119.91;;;11.87;63.67
24234;BME280;12365;43.554;1.388;2024-02-26T06:14:30;98123.38;;;11.87;63.50
24234;BME280;12365;43.554;1.388;2024-02-26T06:16:55;98130.38;;;11.88;63.32
24234;BME280;12365;43.554;1.388;2024-02-26T06:19:21;98126.88;;;11.86;63.41
24234;BME280;12365;43.554;1.388;2024-02-26T06:21:46;98119.03;;;11.86;63.33
24234;BME280;12365;43.554;1.388;2024-02-26T06:24:12;98121.69;;;11.88;63.21
24234;BME280;12365;43.554;1.388;2024-02-26T06:26:37;98134.69;;;11.86;63.11
24234;BME280;12365;43.554;1.388;2024-02-26T06:29:02;98134.53;;;11.79;63.14
24234;BME280;12365;43.554;1.388;2024-02-26T06:31:28;98137.06;;;11.73;62.96
24234;BME280;12365;43.554;1.388;2024-02-26T06:33:54;98148.25;;;11.65;63.09
24234;BME280;12365;43.554;1.388;2024-02-26T06:36:20;98152.50;;;11.59;63.16
24234;BME280;12365;43.554;1.388;2024-02-26T06:38:46;98158.50;;;11.53;63.17
24234;BME280;12365;43.554;1.388;2024-02-26T06:41:11;98166.25;;;11.47;63.02
24234;BME280;12365;43.554;1.388;2024-02-26T06:43:36;98154.75;;;11.39;63.20
24234;BME280;12365;43.554;1.388;2024-02-26T06:46:02;98162.53;;;11.36;63.29
24234;BME280;12365;43.554;1.388;2024-02-26T06:48:27;98164.28;;;11.37;63.18
24234;BME280;12365;43.554;1.388;2024-02-26T06:50:53;98164.38;;;11.40;63.06
24234;BME280;12365;43.554;1.388;2024-02-26T06:53:18;98164.41;;;11.43;63.19
24234;BME280;12365;43.554;1.388;2024-02-26T06:55:44;98179.34;;;11.52;62.76
24234;BME280;12365;43.554;1.388;2024-02-26T06:58:09;98179.56;;;11.62;62.80
24234;BME280;12365;43.554;1.388;2024-02-26T07:00:35;98182.22;;;11.67;62.46
24234;BME280;12365;43.554;1.388;2024-02-26T07:03:00;98184.06;;;11.71;62.53
24234;BME280;12365;43.554;1.388;2024-02-26T07:05:27;98182.38;;;11.75;62.45
24234;BME280;12365;43.554;1.388;2024-02-26T07:07:52;98180.66;;;11.77;62.30
24234;BME280;12365;43.554;1.388;2024-02-26T07:10:18;98187.72;;;11.82;61.77
24234;BME280;12365;43.554;1.388;2024-02-26T07:12:44;98200.94;;;11.88;61.92
24234;BME280;12365;43.554;1.388;2024-02-26T07:15:10;98195.03;;;12.00;61.73
24234;BME280;12365;43.554;1.388;2024-02-26T07:17:35;98199.56;;;12.10;61.33
24234;BME280;12365;43.554;1.388;2024-02-26T07:20:01;98191.81;;;12.17;61.00
24234;BME280;12365;43.554;1.388;2024-02-26T07:22:29;98195.38;;;12.22;60.94
24234;BME280;12365;43.554;1.388;2024-02-26T07:24:55;98208.56;;;12.29;60.85
24234;BME280;12365;43.554;1.388;2024-02-26T07:27:20;98205.19;;;12.36;60.97
24234;BME280;12365;43.554;1.388;2024-02-26T07:29:46;98211.41;;;12.43;60.47
24234;BME280;12365;43.554;1.388;2024-02-26T07:32:12;98224.53;;;12.49;60.36
24234;BME280;12365;43.554;1.388;2024-02-26T07:34:37;98222.94;;;12.59;60.30
24234;BME280;12365;43.554;1.388;2024-02-26T07:37:07;98214.34;;;12.66;60.10
24234;BME280;12365;43.554;1.388;2024-02-26T07:39:32;98216.13;;;12.70;59.91
24234;BME280;12365;43.554;1.388;2024-02-26T07:41:57;98207.44;;;12.71;59.69
24234;BME280;12365;43.554;1.388;2024-02-26T07:44:23;98203.13;;;12.78;59.50
24234;BME280;12365;43.554;1.388;2024-02-26T07:46:48;98211.13;;;12.87;59.37
24234;BME280;12365;43.554;1.388;2024-02-26T07:49:13;98216.41;;;12.93;59.07
24234;BME280;12365;43.554;1.388;2024-02-26T07:51:39;98215.75;;;13.07;58.94
24234;BME280;12365;43.554;1.388;2024-02-26T07:54:04;98221.91;;;13.12;58.79
24234;BME280;12365;43.554;1.388;2024-02-26T07:56:30;98214.16;;;13.19;58.43
24234;BME280;12365;43.554;1.388;2024-02-26T07:58:55;98209.03;;;13.29;58.66
24234;BME280;12365;43.554;1.388;2024-02-26T08:01:20;98216.03;;;13.30;57.63
24234;BME280;12365;43.554;1.388;2024-02-26T08:03:46;98206.53;;;13.38;57.78
24234;BME280;12365;43.554;1.388;2024-02-26T08:06:11;98203.13;;;13.47;57.16
24234;BME280;12365;43.554;1.388;2024-02-26T08:08:36;98197.06;;;13.54;57.30
24234;BME280;12365;43.554;1.388;2024-02-26T08:11:02;98205.94;;;13.65;57.18
24234;BME280;12365;43.554;1.388;2024-02-26T08:13:27;98204.25;;;13.70;57.01
24234;BME280;12365;43.554;1.388;2024-02-26T08:15:53;98214.84;;;13.82;56.96
24234;BME280;12365;43.554;1.388;2024-02-26T08:18:18;98209.69;;;13.90;56.76
24234;BME280;12365;43.554;1.388;2024-02-26T08:20:44;98211.47;;;13.96;56.43
24234;BME280;12365;43.554;1.388;2024-02-26T08:23:09;98208.94;;;14.06;56.50
24234;BME280;12365;43.554;1.388;2024-02-26T08:25:35;98207.19;;;14.10;56.15
24234;BME280;12365;43.554;1.388;2024-02-26T08:28:00;98202.94;;;14.21;56.16
24234;BME280;12365;43.554;1.388;2024-02-26T08:30:26;98195.97;;;14.26;55.84
24234;BME280;12365;43.554;1.388;2024-02-26T08:32:51;98199.44;;;14.25;55.21
24234;BME280;12365;43.554;1.388;2024-02-26T08:35:17;98199.53;;;14.33;55.16
24234;BME280;12365;43.554;1.388;2024-02-26T08:37:46;98182.84;;;14.26;54.21
24234;BME280;12365;43.554;1.388;2024-02-26T08:40:12;98196.97;;;14.44;54.75
24234;BME280;12365;43.554;1.388;2024-02-26T08:42:37;98195.25;;;14.50;54.45
24234;BME280;12365;43.554;1.388;2024-02-26T08:45:03;98194.50;;;14.65;54.48
24234;BME280;12365;43.554;1.388;2024-02-26T08:47:28;98196.34;;;14.79;54.32
24234;BME280;12365;43.554;1.388;2024-02-26T08:49:54;98198.06;;;14.78;53.74
24234;BME280;12365;43.554;1.388;2024-02-26T08:52:19;98199.88;;;14.84;53.88
24234;BME280;12365;43.554;1.388;2024-02-26T08:54:45;98199.91;;;14.96;53.63
24234;BME280;12365;43.554;1.388;2024-02-26T08:57:10;98192.91;;;14.98;53.23
24234;BME280;12365;43.554;1.388;2024-02-26T08:59:36;98203.47;;;15.07;53.22
24234;BME280;12365;43.554;1.388;2024-02-26T09:02:01;98205.22;;;15.08;52.78
24234;BME280;12365;43.554;1.388;2024-02-26T09:04:26;98208.72;;;15.10;52.15
24234;BME280;12365;43.554;1.388;2024-02-26T09:06:53;98214.84;;;15.11;51.13
24234;BME280;12365;43.554;1.388;2024-02-26T09:09:19;98207.00;;;15.22;51.92
24234;BME280;12365;43.554;1.388;2024-02-26T09:11:45;98211.44;;;15.33;51.66
24234;BME280;12365;43.554;1.388;2024-02-26T09:14:10;98224.59;;;15.32;51.09
24234;BME280;12365;43.554;1.388;2024-02-26T09:16:35;98219.38;;;15.47;51.28
24234;BME280;12365;43.554;1.388;2024-02-26T09:19:01;98213.22;;;15.54;50.95
24234;BME280;12365;43.554;1.388;2024-02-26T09:21:28;98222.94;;;15.68;51.17
24234;BME280;12365;43.554;1.388;2024-02-26T09:23:53;98222.97;;;15.77;50.73
24234;BME280;12365;43.554;1.388;2024-02-26T09:26:18;98237.81;;;15.69;50.13
24234;BME280;12365;43.554;1.388;2024-02-26T09:28:44;98222.91;;;15.58;49.57
24234;BME280;12365;43.554;1.388;2024-02-26T09:31:10;98237.84;;;15.72;49.74
24234;BME280;12365;43.554;1.388;2024-02-26T09:33:35;98231.72;;;15.82;49.64
24234;BME280;12365;43.554;1.388;2024-02-26T09:36:01;98232.63;;;15.93;49.40
24234;BME280;12365;43.554;1.388;2024-02-26T09:38:27;98235.25;;;15.96;49.14
24234;BME280;12365;43.554;1.388;2024-02-26T09:40:53;98241.38;;;15.89;48.27
24234;BME280;12365;43.554;1.388;2024-02-26T09:43:21;98230.88;;;16.00;48.26
24234;BME280;12365;43.554;1.388;2024-02-26T09:45:47;98227.38;;;16.02;47.28
24234;BME280;12365;43.554;1.388;2024-02-26T09:48:15;98216.84;;;16.04;47.41
24234;BME280;12365;43.554;1.388;2024-02-26T09:50:43;98221.22;;;16.13;47.75
24234;BME280;12365;43.554;1.388;2024-02-26T09:53:10;98222.09;;;16.30;47.82
24234;BME280;12365;43.554;1.388;2024-02-26T09:55:36;98226.50;;;16.37;47.44
24234;BME280;12365;43.554;1.388;2024-02-26T09:58:04;98226.50;;;16.40;47.21
24234;BME280;12365;43.554;1.388;2024-02-26T10:00:31;98219.44;;;16.58;47.34
24234;BME280;12365;43.554;1.388;2024-02-26T10:03:03;98220.31;;;16.78;47.30
24234;BME280;12365;43.554;1.388;2024-02-26T10:05:29;98229.97;;;16.85;46.35
24234;BME280;12365;43.554;1.388;2024-02-26T10:07:56;98221.19;;;16.86;46.09
24234;BME280;12365;43.554;1.388;2024-02-26T10:10:23;98215.03;;;16.90;45.56
24234;BME280;12365;43.554;1.388;2024-02-26T10:12:48;98222.94;;;16.97;46.14
24234;BME280;12365;43.554;1.388;2024-02-26T10:15:14;98220.22;;;17.12;46.00
24234;BME280;12365;43.554;1.388;2024-02-26T10:17:40;98208.75;;;17.21;45.70
24234;BME280;12365;43.554;1.388;2024-02-26T10:20:17;98218.44;;;17.14;45.07
24234;BME280;12365;43.554;1.388;2024-02-26T10:22:43;98216.78;;;16.75;45.51
24234;BME280;12365;43.554;1.388;2024-02-26T10:25:09;98214.19;;;16.55;45.80
24234;BME280;12365;43.554;1.388;2024-02-26T10:27:35;98208.06;;;16.48;45.80
24234;BME280;12365;43.554;1.388;2024-02-26T10:30:05;98209.78;;;16.63;45.52
24234;BME280;12365;43.554;1.388;2024-02-26T10:32:40;98211.56;;;16.68;45.44
24234;BME280;12365;43.554;1.388;2024-02-26T10:35:08;98197.50;;;16.86;45.47
24234;BME280;12365;43.554;1.388;2024-02-26T10:37:34;98209.69;;;17.07;44.76
24234;BME280;12365;43.554;1.388;2024-02-26T10:39:59;98191.25;;;17.06;44.79
24234;BME280;12365;43.554;1.388;2024-02-26T10:42:26;98191.22;;;17.09;44.26
24234;BME280;12365;43.554;1.388;2024-02-26T10:44:51;98186.78;;;17.28;44.61
24234;BME280;12365;43.554;1.388;2024-02-26T10:47:16;98185.78;;;17.44;44.38
24234;BME280;12365;43.554;1.388;2024-02-26T10:49:46;98176.94;;;17.56;44.24
24234;BME280;12365;43.554;1.388;2024-02-26T10:52:13;98176.81;;;17.77;44.23
24234;BME280;12365;43.554;1.388;2024-02-26T10:54:41;98189.91;;;17.96;43.90
24234;BME280;12365;43.554;1.388;2024-02-26T10:57:08;98175.78;;;18.00;43.44
24234;BME280;12365;43.554;1.388;2024-02-26T10:59:35;98180.97;;;18.11;43.37
24234;BME280;12365;43.554;1.388;2024-02-26T11:02:02;98180.94;;;18.14;42.97
24234;BME280;12365;43.554;1.388;2024-02-26T11:04:29;98199.16;;;18.43;43.09
24234;BME280;12365;43.554;1.388;2024-02-26T11:06:56;98193.03;;;18.41;42.24
24234;BME280;12365;43.554;1.388;2024-02-26T11:09:22;98186.22;;;18.12;41.83
24234;BME280;12365;43.554;1.388;2024-02-26T11:11:48;98193.22;;;18.19;42.38
24234;BME280;12365;43.554;1.388;2024-02-26T11:14:14;98190.63;;;18.10;41.86
24234;BME280;12365;43.554;1.388;2024-02-26T11:16:39;98192.63;;;17.84;41.36
24234;BME280;12365;43.554;1.388;2024-02-26T11:19:08;98189.22;;;17.63;42.23
24234;BME280;12365;43.554;1.388;2024-02-26T11:21:36;98194.50;;;17.57;42.32
24234;BME280;12365;43.554;1.388;2024-02-26T11:24:15;98198.03;;;17.54;42.24
24234;BME280;12365;43.554;1.388;2024-02-26T11:26:59;98184.81;;;17.62;42.12
24234;BME280;12365;43.554;1.388;2024-02-26T11:29:41;98186.38;;;17.95;41.57
24234;BME280;12365;43.554;1.388;2024-02-26T11:32:09;98185.31;;;18.16;42.10
24234;BME280;12365;43.554;1.388;2024-02-26T11:34:34;98183.22;;;18.52;41.87
24234;BME280;12365;43.554;1.388;2024-02-26T11:37:13;98172.50;;;18.68;41.79
24234;BME280;12365;43.554;1.388;2024-02-26T11:39:42;98173.31;;;18.76;41.61
24234;BME280;12365;43.554;1.388;2024-02-26T11:42:10;98172.44;;;18.75;41.75
24234;BME280;12365;43.554;1.388;2024-02-26T11:44:38;98172.34;;;18.83;41.17
24234;BME280;12365;43.554;1.388;2024-02-26T11:49:35;98172.47;;;18.72;41.09
24234;BME280;12365;43.554;1.388;2024-02-26T11:52:07;98165.66;;;18.48;41.21
24234;BME280;12365;43.554;1.388;2024-02-26T11:54:49;98164.91;;;18.38;40.90
24234;BME280;12365;43.554;1.388;2024-02-26T11:57:29;98152.44;;;18.51;41.45
24234;BME280;12365;43.554;1.388;2024-02-26T12:00:02;98143.28;;;18.84;41.25
24234;BME280;12365;43.554;1.388;2024-02-26T12:02:51;98137.59;;;19.17;41.03
24234;BME280;12365;43.554;1.388;2024-02-26T12:05:23;98129.56;;;19.21;40.53
24234;BME280;12365;43.554;1.388;2024-02-26T12:07:53;98135.13;;;19.04;40.73
24234;BME280;12365;43.554;1.388;2024-02-26T12:12:59;98133.13;;;19.20;40.40
24234;BME280;12365;43.554;1.388;2024-02-26T12:15:33;98122.81;;;19.00;39.94
24234;BME280;12365;43.554;1.388;2024-02-26T12:18:03;98120.28;;;18.91;40.35
24234;BME280;12365;43.554;1.388;2024-02-26T12:20:29;98107.78;;;19.05;40.52
24234;BME280;12365;43.554;1.388;2024-02-26T12:22:56;98111.88;;;19.28;40.25
24234;BME280;12365;43.554;1.388;2024-02-26T12:25:28;98105.88;;;19.17;39.53
24234;BME280;12365;43.554;1.388;2024-02-26T12:27:54;98099.78;;;19.09;39.80
24234;BME280;12365;43.554;1.388;2024-02-26T12:30:21;98092.16;;;18.87;39.81
24234;BME280;12365;43.554;1.388;2024-02-26T12:32:51;98090.28;;;18.94;40.02
24234;BME280;12365;43.554;1.388;2024-02-26T12:35:17;98080.53;;;19.00;39.58
24234;BME280;12365;43.554;1.388;2024-02-26T12:37:43;98094.50;;;19.09;39.77
24234;BME280;12365;43.554;1.388;2024-02-26T12:40:10;98085.66;;;19.13;39.36
24234;BME280;12365;43.554;1.388;2024-02-26T12:42:36;98090.38;;;18.88;38.71
24234;BME280;12365;43.554;1.388;2024-02-26T12:45:09;98082.94;;;18.46;38.97
24234;BME280;12365;43.554;1.388;2024-02-26T12:47:44;98079.50;;;18.38;39.24
24234;BME280;12365;43.554;1.388;2024-02-26T12:50:15;98079.50;;;18.38;39.30
24234;BME280;12365;43.554;1.388;2024-02-26T12:52:45;98070.56;;;18.51;39.27
24234;BME280;12365;43.554;1.388;2024-02-26T12:55:17;98060.81;;;18.56;38.88
24234;BME280;12365;43.554;1.388;2024-02-26T12:57:44;98069.50;;;18.66;38.97
24234;BME280;12365;43.554;1.388;2024-02-26T13:00:16;98052.75;;;18.67;38.70